createdAt,value
2023-03-25T00:00:25.968Z,0.60
2023-03-25T00:02:52.695Z,1.10
2023-03-25T00:05:21.614Z,0.60
2023-03-25T00:07:52.658Z,1.13
2023-03-25T00:10:19.629Z,0.70
2023-03-25T00:12:46.215Z,1.07
2023-03-25T00:15:13.515Z,0.73
2023-03-25T00:17:40.080Z,0.57
2023-03-25T00:20:12.070Z,0.80
2023-03-25T00:22:44.264Z,0.60
2023-03-25T00:25:17.406Z,0.73
2023-03-25T00:27:46.399Z,0.70
2023-03-25T00:30:14.696Z,0.90
2023-03-25T00:32:41.397Z,0.50
2023-03-25T00:35:08.495Z,0.87
2023-03-25T00:37:34.926Z,0.50
2023-03-25T00:40:01.549Z,0.67
2023-03-25T00:42:27.982Z,0.77
2023-03-25T00:44:54.487Z,0.90
2023-03-25T00:47:22.504Z,0.67
2023-03-25T00:49:49.850Z,0.80
2023-03-25T00:52:16.437Z,1.20
2023-03-25T00:54:43.281Z,1.20
2023-03-25T00:57:09.728Z,0.97
2023-03-25T00:59:36.223Z,0.80
2023-03-25T01:02:03.681Z,0.70
2023-03-25T01:04:30.296Z,0.70
2023-03-25T01:06:57.518Z,0.63
2023-03-25T01:09:24.065Z,0.60
2023-03-25T01:11:50.706Z,0.50
2023-03-25T01:14:20.810Z,0.67
2023-03-25T01:16:47.782Z,0.40
2023-03-25T01:19:14.667Z,0.40
2023-03-25T01:21:41.669Z,0.50
2023-03-25T01:24:11.981Z,0.40
2023-03-25T01:26:38.456Z,0.30
2023-03-25T01:29:05.346Z,0.23
2023-03-25T01:31:33.204Z,0.30
2023-03-25T01:33:59.824Z,0.30
2023-03-25T01:36:29.655Z,0.37
2023-03-25T01:39:01.312Z,0.17
2023-03-25T01:41:42.212Z,0.30
2023-03-25T01:44:18.121Z,0.70
2023-03-25T01:46:45.419Z,0.20
2023-03-25T01:49:38.813Z,0.27
2023-03-25T01:52:07.466Z,0.20
2023-03-25T01:54:34.526Z,0.20
2023-03-25T01:57:01.286Z,0.20
2023-03-25T01:59:29.403Z,0.10
2023-03-25T02:02:01.621Z,0.40
2023-03-25T02:05:00.577Z,0.30
2023-03-25T02:07:31.022Z,0.30
2023-03-25T02:10:02.314Z,0.30
2023-03-25T02:12:29.123Z,0.30
2023-03-25T02:14:57.915Z,0.27
2023-03-25T02:17:49.532Z,0.30
2023-03-25T02:20:36.017Z,0.30
2023-03-25T02:23:28.720Z,0.40
2023-03-25T02:26:25.790Z,0.40
2023-03-25T02:29:09.476Z,0.40
2023-03-25T02:32:12.243Z,0.50
2023-03-25T02:35:03.119Z,0.70
2023-03-25T02:37:50.798Z,0.70
2023-03-25T02:40:25.710Z,0.83
2023-03-25T02:43:00.204Z,0.50
2023-03-25T02:45:34.241Z,0.47
2023-03-25T02:48:07.829Z,0.70
2023-03-25T02:50:47.963Z,0.53
2023-03-25T02:53:21.106Z,0.87
2023-03-25T02:55:49.536Z,0.77
2023-03-25T02:58:19.312Z,0.67
2023-03-25T03:00:46.488Z,0.67
2023-03-25T03:03:13.100Z,0.50
2023-03-25T03:05:51.790Z,1.03
2023-03-25T03:08:49.707Z,0.80
2023-03-25T03:11:30.734Z,0.70
2023-03-25T03:14:18.862Z,0.60
2023-03-25T03:17:00.818Z,0.70
2023-03-25T03:19:56.970Z,0.80
2023-03-25T03:22:52.688Z,0.80
2023-03-25T03:25:40.260Z,0.70
2023-03-25T03:28:19.722Z,0.90
2023-03-25T03:30:54.334Z,0.90
2023-03-25T03:33:36.939Z,0.90
2023-03-25T03:36:30.161Z,0.80
2023-03-25T03:39:01.894Z,0.70
2023-03-25T03:41:30.422Z,0.60
2023-03-25T03:44:14.877Z,0.73
2023-03-25T03:46:51.288Z,0.67
2023-03-25T03:49:23.180Z,0.80
2023-03-25T03:51:58.512Z,1.27
2023-03-25T03:54:29.740Z,0.80
2023-03-25T03:57:04.844Z,1.10
2023-03-25T03:59:58.800Z,1.63
2023-03-25T04:02:32.568Z,1.30
2023-03-25T04:05:00.724Z,1.10
2023-03-25T04:07:38.951Z,1.30
2023-03-25T04:10:21.593Z,1.37
2023-03-25T04:12:52.793Z,0.93
2023-03-25T04:15:19.511Z,1.07
2023-03-25T04:17:47.990Z,0.77
2023-03-25T04:20:23.664Z,0.80
2023-03-25T04:22:51.806Z,0.87
2023-03-25T04:25:21.387Z,1.00
2023-03-25T04:27:48.981Z,1.00
2023-03-25T04:30:19.308Z,1.00
2023-03-25T04:32:47.556Z,1.20
2023-03-25T04:35:16.949Z,0.97
2023-03-25T04:37:45.845Z,1.07
2023-03-25T04:40:18.669Z,0.90
2023-03-25T04:42:46.483Z,0.87
2023-03-25T04:45:18.780Z,0.63
2023-03-25T04:47:47.351Z,0.87
2023-03-25T04:50:23.158Z,0.90
2023-03-25T04:52:51.035Z,0.90
2023-03-25T04:55:19.474Z,0.90
2023-03-25T04:57:48.155Z,0.80
2023-03-25T05:00:17.066Z,0.90
2023-03-25T05:02:45.974Z,0.93
2023-03-25T05:05:18.374Z,1.40
2023-03-25T05:07:50.143Z,1.23
2023-03-25T05:10:18.168Z,1.00
2023-03-25T05:12:44.805Z,0.90
2023-03-25T05:15:12.235Z,0.80
2023-03-25T05:17:39.086Z,1.33
2023-03-25T05:20:08.858Z,1.80
2023-03-25T05:22:37.778Z,1.10
2023-03-25T05:25:09.813Z,1.50
2023-03-25T05:27:37.713Z,1.57
2023-03-25T05:30:05.894Z,1.73
2023-03-25T05:32:35.122Z,1.40
2023-03-25T05:35:03.145Z,1.47
2023-03-25T05:37:29.932Z,1.63
2023-03-25T05:39:56.436Z,1.60
2023-03-25T05:42:23.061Z,1.33
2023-03-25T05:44:51.211Z,1.20
2023-03-25T05:47:23.607Z,1.57
2023-03-25T05:49:51.877Z,1.90
2023-03-25T05:52:19.222Z,1.50
2023-03-25T05:54:46.986Z,1.87
2023-03-25T05:57:13.575Z,1.77
2023-03-25T05:59:40.660Z,1.63
2023-03-25T06:02:17.304Z,1.73
2023-03-25T06:04:44.696Z,1.90
2023-03-25T06:07:19.764Z,1.60
2023-03-25T06:09:49.754Z,2.13
2023-03-25T06:12:20.012Z,2.70
2023-03-25T06:14:47.778Z,1.70
2023-03-25T06:17:18.912Z,2.00
2023-03-25T06:19:45.498Z,2.07
2023-03-25T06:22:12.487Z,1.87
2023-03-25T06:24:39.864Z,2.50
2023-03-25T06:27:17.582Z,1.70
2023-03-25T06:29:45.560Z,1.60
2023-03-25T06:32:14.755Z,1.80
2023-03-25T06:34:44.701Z,1.70
2023-03-25T06:37:11.203Z,1.83
2023-03-25T06:39:37.766Z,2.00
2023-03-25T06:42:12.182Z,1.70
2023-03-25T06:44:54.490Z,2.07
2023-03-25T06:47:34.863Z,1.60
2023-03-25T06:50:01.499Z,1.50
2023-03-25T06:52:27.949Z,1.50
2023-03-25T06:54:54.415Z,2.07
2023-03-25T06:57:20.900Z,1.33
2023-03-25T06:59:48.238Z,1.90
2023-03-25T07:02:15.045Z,1.30
2023-03-25T07:04:41.653Z,1.70
2023-03-25T07:07:09.057Z,1.87
2023-03-25T07:09:35.683Z,1.40
2023-03-25T07:12:02.183Z,1.87
2023-03-25T07:14:28.608Z,1.50
2023-03-25T07:16:55.333Z,1.40
2023-03-25T07:19:22.209Z,1.70
2023-03-25T07:21:48.643Z,1.30
2023-03-25T07:24:15.368Z,1.33
2023-03-25T07:26:41.836Z,1.87
2023-03-25T07:29:10.589Z,1.77
2023-03-25T07:31:37.298Z,1.57
2023-03-25T07:34:04.781Z,1.90
2023-03-25T07:36:31.207Z,1.73
2023-03-25T07:38:57.774Z,1.70
2023-03-25T07:41:24.232Z,1.93
2023-03-25T07:44:04.328Z,2.30
2023-03-25T07:46:32.188Z,1.80
2023-03-25T07:48:58.640Z,1.40
2023-03-25T07:51:25.192Z,1.33
2023-03-25T07:53:51.641Z,1.50
2023-03-25T07:56:18.092Z,1.17
2023-03-25T07:58:45.426Z,1.63
2023-03-25T08:01:12.070Z,2.23
2023-03-25T08:03:39.804Z,2.17
2023-03-25T08:06:07.431Z,1.27
2023-03-25T08:08:34.050Z,1.73
2023-03-25T08:11:01.589Z,1.93
2023-03-25T08:13:28.112Z,1.50
2023-03-25T08:15:54.531Z,1.50
2023-03-25T08:18:21.256Z,1.33
2023-03-25T08:20:50.066Z,1.40
2023-03-25T08:23:19.596Z,1.33
2023-03-25T08:25:51.845Z,1.20
2023-03-25T08:28:23.310Z,1.20
2023-03-25T08:30:54.925Z,1.03
2023-03-25T08:33:27.181Z,0.80
2023-03-25T08:35:57.235Z,1.07
2023-03-25T08:38:25.299Z,1.10
2023-03-25T08:40:51.825Z,1.20
2023-03-25T08:43:18.200Z,1.00
2023-03-25T08:45:44.693Z,0.87
2023-03-25T08:48:11.187Z,1.40
2023-03-25T08:50:37.658Z,1.10
2023-03-25T08:53:04.099Z,0.90
2023-03-25T08:55:30.562Z,0.90
2023-03-25T08:57:57.073Z,1.20
2023-03-25T09:00:25.281Z,1.60
2023-03-25T09:02:51.823Z,0.87
2023-03-25T09:05:19.078Z,1.10
2023-03-25T09:07:46.700Z,1.20
2023-03-25T09:10:13.377Z,1.20
2023-03-25T09:12:39.773Z,1.20
2023-03-25T09:15:07.272Z,1.00
2023-03-25T09:17:33.730Z,1.40
2023-03-25T09:20:00.181Z,1.30
2023-03-25T09:22:26.704Z,0.70
2023-03-25T09:24:53.149Z,1.23
2023-03-25T09:27:19.694Z,0.87
2023-03-25T09:29:46.244Z,1.47
2023-03-25T09:32:13.010Z,1.20
2023-03-25T09:34:39.430Z,0.90
2023-03-25T09:37:05.939Z,0.80
2023-03-25T09:39:32.454Z,0.90
2023-03-25T09:42:23.488Z,0.93
2023-03-25T09:45:16.693Z,1.60
2023-03-25T09:47:53.306Z,1.20
2023-03-25T09:50:21.827Z,1.30
2023-03-25T09:52:58.530Z,1.17
2023-03-25T09:55:30.269Z,1.00
2023-03-25T09:58:28.844Z,1.33
2023-03-25T10:01:03.689Z,1.13
2023-03-25T10:03:44.693Z,0.97
2023-03-25T10:06:19.721Z,0.90
2023-03-25T10:09:01.802Z,1.00
2023-03-25T10:11:40.115Z,0.90
2023-03-25T10:14:20.082Z,1.07
2023-03-25T10:16:58.346Z,1.00
2023-03-25T10:20:01.364Z,0.60
2023-03-25T10:22:39.826Z,1.17
2023-03-25T10:25:15.594Z,0.80
2023-03-25T10:27:49.568Z,0.97
2023-03-25T10:30:21.416Z,0.90
2023-03-25T10:33:04.152Z,0.60
2023-03-25T10:35:42.718Z,0.60
2023-03-25T10:38:20.991Z,0.60
2023-03-25T10:40:50.459Z,0.43
2023-03-25T10:43:31.968Z,0.60
2023-03-25T10:46:14.419Z,0.60
2023-03-25T10:48:41.144Z,0.50
2023-03-25T10:51:13.736Z,1.07
2023-03-25T10:53:47.493Z,0.73
2023-03-25T10:56:17.890Z,0.50
2023-03-25T10:58:50.551Z,0.60
2023-03-25T11:01:30.455Z,1.20
2023-03-25T11:03:59.406Z,1.40
2023-03-25T11:06:29.715Z,1.00
2023-03-25T11:08:58.378Z,0.60
2023-03-25T11:11:33.396Z,1.40
2023-03-25T11:13:59.966Z,0.60
2023-03-25T11:16:26.607Z,0.70
2023-03-25T11:18:53.863Z,0.63
2023-03-25T11:21:21.256Z,0.80
2023-03-25T11:23:50.768Z,0.60
2023-03-25T11:26:17.115Z,0.70
2023-03-25T11:28:56.011Z,0.70
2023-03-25T11:31:25.292Z,0.70
2023-03-25T11:34:18.753Z,1.00
2023-03-25T11:37:16.817Z,0.60
2023-03-25T11:39:48.479Z,1.30
2023-03-25T11:42:22.391Z,0.93
2023-03-25T11:44:54.252Z,1.07
2023-03-25T11:47:26.917Z,0.80
2023-03-25T11:49:54.199Z,0.90
2023-03-25T11:52:24.427Z,0.97
2023-03-25T11:54:53.712Z,1.07
2023-03-25T11:57:24.685Z,1.13
2023-03-25T12:00:00.950Z,1.10
2023-03-25T12:02:38.151Z,0.90
2023-03-25T12:05:07.898Z,1.37
2023-03-25T12:07:51.894Z,0.67
2023-03-25T12:10:40.645Z,0.77
2023-03-25T12:13:41.414Z,0.73
2023-03-25T12:16:34.119Z,0.40
2023-03-25T12:19:10.432Z,0.50
2023-03-25T12:22:01.387Z,0.73
2023-03-25T12:25:26.315Z,0.87
2023-03-25T12:27:55.331Z,0.60
2023-03-25T12:30:27.525Z,0.93
2023-03-25T12:33:06.141Z,0.77
2023-03-25T12:35:47.277Z,0.83
2023-03-25T12:38:28.625Z,1.20
2023-03-25T12:41:11.598Z,1.23
2023-03-25T12:44:02.222Z,0.90
2023-03-25T12:46:56.056Z,1.03
2023-03-25T12:49:41.477Z,1.30
2023-03-25T12:52:13.721Z,0.73
2023-03-25T12:54:58.775Z,0.70
2023-03-25T12:57:25.397Z,0.77
2023-03-25T13:00:25.547Z,0.70
2023-03-25T13:03:33.854Z,0.73
2023-03-25T13:06:17.309Z,0.80
2023-03-25T13:08:58.980Z,0.90
2023-03-25T13:11:33.405Z,0.60
2023-03-25T13:14:08.960Z,0.77
2023-03-25T13:16:37.558Z,1.10
2023-03-25T13:19:11.022Z,0.67
2023-03-25T13:21:46.356Z,0.50
2023-03-25T13:24:18.492Z,0.60
2023-03-25T13:26:47.951Z,0.60
2023-03-25T13:29:36.914Z,0.90
2023-03-25T13:32:09.709Z,1.00
2023-03-25T13:34:45.370Z,0.83
2023-03-25T13:37:22.608Z,0.70
2023-03-25T13:40:10.885Z,0.60
2023-03-25T13:42:51.322Z,0.60
2023-03-25T13:45:22.670Z,0.60
2023-03-25T13:48:19.790Z,0.70
2023-03-25T13:50:46.665Z,0.80
2023-03-25T13:53:25.151Z,0.70
2023-03-25T13:56:22.233Z,0.80
2023-03-25T13:59:08.397Z,0.93
2023-03-25T14:01:43.700Z,0.83
2023-03-25T14:04:24.029Z,0.87
2023-03-25T14:07:14.709Z,0.73
2023-03-25T14:09:58.228Z,0.70
2023-03-25T14:12:55.565Z,0.90
2023-03-25T14:15:26.488Z,1.10
2023-03-25T14:17:56.032Z,0.93
2023-03-25T14:20:27.749Z,1.20
2023-03-25T14:22:57.543Z,0.90
2023-03-25T14:25:33.580Z,0.80
2023-03-25T14:28:02.341Z,1.07
2023-03-25T14:30:31.061Z,1.33
2023-03-25T14:32:57.878Z,1.17
2023-03-25T14:35:33.724Z,1.20
2023-03-25T14:38:09.172Z,1.10
2023-03-25T14:40:47.447Z,1.03
2023-03-25T14:43:46.159Z,1.20
2023-03-25T14:46:19.062Z,1.30
2023-03-25T14:48:50.155Z,1.30
2023-03-25T14:51:25.708Z,0.70
2023-03-25T14:54:14.056Z,1.20
2023-03-25T14:57:08.234Z,1.30
2023-03-25T14:59:44.535Z,3.27
2023-03-25T15:02:31.261Z,1.73
2023-03-25T15:05:13.684Z,0.67
2023-03-25T15:07:50.463Z,1.07
2023-03-25T15:10:36.613Z,1.40
2023-03-25T15:13:19.573Z,1.00
2023-03-25T15:15:46.083Z,1.53
2023-03-25T15:18:34.374Z,1.40
2023-03-25T15:21:09.895Z,1.40
2023-03-25T15:23:41.294Z,0.93
2023-03-25T15:26:19.596Z,0.97
2023-03-25T15:29:01.929Z,0.90
2023-03-25T15:31:41.167Z,0.93
2023-03-25T15:34:22.970Z,1.17
2023-03-25T15:37:33.164Z,1.80
2023-03-25T15:40:17.514Z,1.03
2023-03-25T15:42:59.192Z,1.50
2023-03-25T15:45:57.041Z,1.20
2023-03-25T15:49:01.351Z,0.85
2023-03-25T15:51:33.682Z,1.23
2023-03-25T15:54:16.473Z,0.87
2023-03-25T15:56:46.921Z,1.50
2023-03-25T15:59:30.059Z,1.20
2023-03-25T16:01:59.865Z,0.77
2023-03-25T16:04:42.322Z,1.00
2023-03-25T16:07:13.020Z,1.80
2023-03-25T16:09:44.605Z,1.27
2023-03-25T16:12:11.212Z,1.43
2023-03-25T16:14:39.538Z,1.37
2023-03-25T16:17:08.740Z,0.97
2023-03-25T16:19:41.521Z,1.00
2023-03-25T16:22:37.389Z,0.70
2023-03-25T16:25:14.563Z,0.90
2023-03-25T16:27:47.138Z,0.87
2023-03-25T16:30:28.932Z,1.43
2023-03-25T16:33:07.871Z,1.30
2023-03-25T16:35:37.155Z,1.20
2023-03-25T16:38:04.735Z,0.80
2023-03-25T16:40:36.161Z,0.80
2023-03-25T16:43:06.512Z,0.90
2023-03-25T16:45:34.252Z,1.00
2023-03-25T16:48:07.566Z,2.20
2023-03-25T16:50:35.353Z,2.43
2023-03-25T16:53:02.946Z,1.13
2023-03-25T16:55:47.420Z,1.53
2023-03-25T16:58:18.230Z,1.40
2023-03-25T17:00:48.252Z,3.13
2023-03-25T17:03:21.200Z,2.37
2023-03-25T17:06:01.425Z,1.37
2023-03-25T17:08:28.361Z,1.10
2023-03-25T17:10:57.046Z,0.90
2023-03-25T17:13:29.578Z,1.00
2023-03-25T17:15:56.711Z,1.97
2023-03-25T17:18:29.222Z,1.00
2023-03-25T17:21:00.053Z,2.40
2023-03-25T17:23:42.443Z,1.60
2023-03-25T17:26:11.548Z,1.77
2023-03-25T17:28:43.203Z,1.50
2023-03-25T17:31:29.544Z,1.40
2023-03-25T17:34:08.252Z,0.83
2023-03-25T17:36:37.784Z,0.50
2023-03-25T17:39:13.118Z,0.50
2023-03-25T17:41:40.177Z,0.60
2023-03-25T17:44:07.358Z,0.90
2023-03-25T17:46:35.160Z,0.53
2023-03-25T17:49:01.741Z,0.70
2023-03-25T17:51:30.314Z,1.00
2023-03-25T17:53:57.434Z,0.57
2023-03-25T17:56:27.471Z,0.70
2023-03-25T17:59:05.722Z,1.03
2023-03-25T18:01:32.535Z,1.30
2023-03-25T18:03:59.023Z,1.57
2023-03-25T18:06:25.878Z,1.43
2023-03-25T18:08:52.954Z,1.60
2023-03-25T18:11:19.837Z,2.43
2023-03-25T18:13:48.242Z,4.73
2023-03-25T18:16:16.983Z,2.80
2023-03-25T18:18:43.895Z,2.70
2023-03-25T18:21:15.647Z,1.63
2023-03-25T18:23:47.366Z,1.43
2023-03-25T18:26:16.770Z,1.50
2023-03-25T18:28:43.658Z,1.40
2023-03-25T18:31:17.140Z,1.23
2023-03-25T18:33:48.314Z,1.43
2023-03-25T18:36:15.200Z,1.97
2023-03-25T18:38:43.375Z,1.70
2023-03-25T18:41:17.275Z,1.90
2023-03-25T18:43:44.351Z,1.50
2023-03-25T18:46:15.007Z,2.47
2023-03-25T18:48:42.315Z,1.47
2023-03-25T18:51:13.667Z,1.20
2023-03-25T18:53:40.853Z,1.90
2023-03-25T18:56:07.904Z,2.90
2023-03-25T18:58:35.941Z,1.73
2023-03-25T19:01:04.003Z,3.60
2023-03-25T19:03:31.199Z,2.30
2023-03-25T19:05:59.258Z,1.70
2023-03-25T19:08:26.732Z,1.50
2023-03-25T19:10:55.888Z,1.53
2023-03-25T19:13:28.785Z,1.60
2023-03-25T19:15:55.217Z,1.23
2023-03-25T19:18:27.707Z,1.13
2023-03-25T19:20:55.308Z,0.93
2023-03-25T19:23:22.188Z,0.93
2023-03-25T19:25:50.888Z,0.90
2023-03-25T19:28:20.330Z,1.10
2023-03-25T19:30:49.007Z,1.10
2023-03-25T19:33:15.888Z,1.20
2023-03-25T19:35:49.570Z,0.90
2023-03-25T19:38:18.809Z,1.07
2023-03-25T19:40:46.510Z,1.00
2023-03-25T19:43:13.503Z,1.30
2023-03-25T19:45:39.903Z,1.53
2023-03-25T19:48:06.498Z,1.10
2023-03-25T19:50:34.424Z,0.50
2023-03-25T19:53:03.295Z,0.90
2023-03-25T19:55:29.917Z,1.30
2023-03-25T19:57:56.675Z,0.77
2023-03-25T20:00:26.500Z,0.87
2023-03-25T20:02:58.747Z,0.60
2023-03-25T20:05:25.643Z,1.07
2023-03-25T20:07:52.178Z,1.00
2023-03-25T20:10:21.293Z,1.03
2023-03-25T20:12:49.374Z,1.20
2023-03-25T20:15:17.676Z,1.60
2023-03-25T20:17:44.278Z,1.60
2023-03-25T20:20:12.919Z,3.77
2023-03-25T20:22:40.378Z,2.20
2023-03-25T20:25:09.090Z,1.30
2023-03-25T20:27:36.156Z,1.27
2023-03-25T20:30:03.947Z,1.10
2023-03-25T20:32:39.923Z,1.00
2023-03-25T20:35:10.271Z,1.20
2023-03-25T20:37:38.587Z,1.60
2023-03-25T20:40:11.210Z,1.13
2023-03-25T20:42:39.985Z,1.00
2023-03-25T20:45:07.445Z,1.53
2023-03-25T20:47:34.357Z,1.50
2023-03-25T20:50:00.872Z,1.03
2023-03-25T20:52:28.770Z,0.90
2023-03-25T20:54:55.266Z,0.90
2023-03-25T20:57:22.079Z,1.13
2023-03-25T20:59:48.788Z,1.23
2023-03-25T21:02:16.882Z,1.50
2023-03-25T21:04:43.560Z,0.90
2023-03-25T21:07:10.261Z,1.10
2023-03-25T21:09:37.271Z,1.20
2023-03-25T21:12:03.988Z,1.17
2023-03-25T21:14:30.596Z,1.20
2023-03-25T21:16:57.741Z,1.30
2023-03-25T21:19:24.258Z,1.40
2023-03-25T21:21:50.690Z,1.30
2023-03-25T21:24:21.371Z,1.10
2023-03-25T21:26:50.657Z,1.30
2023-03-25T21:29:18.798Z,1.03
2023-03-25T21:31:45.466Z,1.30
2023-03-25T21:34:15.595Z,1.83
2023-03-25T21:36:43.073Z,1.20
2023-03-25T21:39:09.755Z,1.37
2023-03-25T21:41:36.527Z,1.40
2023-03-25T21:44:03.250Z,1.63
2023-03-25T21:46:29.761Z,1.20
2023-03-25T21:48:58.471Z,1.40
2023-03-25T21:51:26.526Z,1.43
2023-03-25T21:53:53.241Z,1.20
2023-03-25T21:56:24.957Z,1.40
2023-03-25T21:58:51.928Z,1.43
2023-03-25T22:01:28.313Z,1.33
2023-03-25T22:03:59.993Z,1.30
2023-03-25T22:06:30.091Z,1.00
2023-03-25T22:08:57.393Z,1.23
2023-03-25T22:11:26.163Z,1.20
2023-03-25T22:13:52.657Z,1.90
2023-03-25T22:16:20.676Z,1.30
2023-03-25T22:18:48.280Z,1.57
2023-03-25T22:21:22.619Z,1.47
2023-03-25T22:23:52.111Z,1.53
2023-03-25T22:26:18.587Z,1.20
2023-03-25T22:28:45.281Z,1.30
2023-03-25T22:31:14.137Z,1.70
2023-03-25T22:33:41.480Z,1.73
2023-03-25T22:36:14.175Z,1.40
2023-03-25T22:38:44.048Z,1.87
2023-03-25T22:41:12.684Z,1.80
2023-03-25T22:43:39.220Z,1.60
2023-03-25T22:46:07.254Z,1.83
2023-03-25T22:48:36.033Z,1.20
2023-03-25T22:51:02.558Z,1.60
2023-03-25T22:53:29.002Z,1.40
2023-03-25T22:55:57.256Z,1.47
2023-03-25T22:58:28.304Z,1.60
2023-03-25T23:00:55.675Z,2.10
2023-03-25T23:03:24.057Z,1.40
2023-03-25T23:05:59.388Z,1.50
2023-03-25T23:08:29.796Z,1.27
2023-03-25T23:10:58.776Z,1.80
2023-03-25T23:13:27.282Z,1.43
2023-03-25T23:16:04.452Z,1.37
2023-03-25T23:18:31.486Z,2.03
2023-03-25T23:20:59.512Z,1.40
2023-03-25T23:23:26.792Z,1.83
2023-03-25T23:26:04.126Z,1.73
2023-03-25T23:28:34.256Z,1.67
2023-03-25T23:31:01.863Z,2.10
2023-03-25T23:33:29.083Z,2.00
2023-03-25T23:36:00.626Z,1.70
2023-03-25T23:38:27.714Z,1.70
2023-03-25T23:41:06.674Z,1.60
2023-03-25T23:43:33.792Z,1.63
2023-03-25T23:46:00.605Z,1.83
2023-03-25T23:48:27.803Z,1.93
2023-03-25T23:50:56.559Z,1.83
2023-03-25T23:53:24.554Z,1.50
2023-03-25T23:55:53.337Z,1.70
2023-03-25T23:58:21.663Z,1.50
